Time;durP1;ratioP1;P1;durP2;ratioP2;P2;SDS_P1;SDS_P2;PMS_P1;PMS_P2;Temp;Humidity;BMP_temperature;BMP_pressure;BME280_temperature;BME280_humidity;BME280_pressure;Samples;Min_cycle;Max_cycle;Signal;HPM_P1;HPM_P2
2023/07/09 00:01:36;;;;;;;11.75;7.57;;;25.50;93.50;;;;;;4953338;28;20031;-47
2023/07/09 00:04:02;;;;;;;11.63;7.53;;;25.40;93.40;;;;;;4951656;28;20044;-49
2023/07/09 00:06:28;;;;;;;11.85;7.18;;;25.40;93.50;;;;;;4952799;28;20089;-48
2023/07/09 00:08:54;;;;;;;10.40;7.63;;;25.30;93.40;;;;;;4952132;28;20039;-46
2023/07/09 00:11:20;;;;;;;12.85;8.00;;;25.30;93.50;;;;;;4952477;28;20483;-49
2023/07/09 00:13:45;;;;;;;11.38;8.27;;;25.20;93.50;;;;;;4953203;28;20766;-47
2023/07/09 00:16:21;;;;;;;10.68;7.22;;;25.20;93.50;;;;;;4953521;28;20346;-44
2023/07/09 00:18:48;;;;;;;11.23;7.18;;;25.10;93.70;;;;;;4953390;28;20380;-48
2023/07/09 00:21:16;;;;;;;12.02;8.13;;;25.10;93.60;;;;;;4953213;28;20079;-48
2023/07/09 00:23:41;;;;;;;10.38;7.20;;;25.00;93.50;;;;;;4953296;28;20370;-48
2023/07/09 00:26:20;;;;;;;12.13;8.02;;;25.00;93.80;;;;;;4953421;28;20117;-48
2023/07/09 00:28:46;;;;;;;9.73;7.47;;;25.00;93.90;;;;;;4935028;28;20122;-50
2023/07/09 00:31:14;;;;;;;10.48;7.45;;;24.90;94.00;;;;;;4952696;28;20035;-46
2023/07/09 00:33:41;;;;;;;11.50;7.47;;;24.90;94.00;;;;;;4950884;28;20045;-51
2023/07/09 00:36:23;;;;;;;10.95;7.40;;;24.80;94.00;;;;;;4953208;28;20071;-48
2023/07/09 00:38:51;;;;;;;13.98;8.13;;;24.80;94.00;;;;;;4953020;28;20043;-47
2023/07/09 00:41:22;;;;;;;11.30;7.88;;;24.70;94.00;;;;;;4952432;28;20074;-49
2023/07/09 00:43:50;;;;;;;11.65;8.25;;;24.70;94.10;;;;;;4952400;28;20043;-49
2023/07/09 00:46:27;;;;;;;12.60;8.30;;;24.70;94.10;;;;;;4952740;28;20126;-49
2023/07/09 00:49:08;;;;;;;11.05;7.88;;;24.60;94.20;;;;;;4953302;28;20491;-48
2023/07/09 00:51:41;;;;;;;12.48;7.60;;;24.60;94.10;;;;;;4952777;28;20035;-50
2023/07/09 00:54:30;;;;;;;14.40;8.23;;;24.50;94.10;;;;;;4953047;28;20035;-49
2023/07/09 00:57:00;;;;;;;14.00;7.68;;;24.50;94.00;;;;;;4952969;28;20118;-49
2023/07/09 00:59:28;;;;;;;10.85;7.95;;;24.40;94.30;;;;;;4952218;28;20043;-50
2023/07/09 01:01:56;;;;;;;12.57;8.18;;;24.40;94.40;;;;;;4952567;28;20043;-48
2023/07/09 01:04:23;;;;;;;10.27;7.82;;;24.40;94.40;;;;;;4952615;28;20043;-50
2023/07/09 01:06:54;;;;;;;10.98;7.80;;;24.30;94.40;;;;;;4952346;28;20295;-49
2023/07/09 01:09:21;;;;;;;11.93;8.23;;;24.20;94.40;;;;;;4952323;28;20047;-47
2023/07/09 01:11:47;;;;;;;13.95;8.40;;;24.20;94.40;;;;;;4952358;28;20126;-48
2023/07/09 01:14:19;;;;;;;11.55;7.82;;;24.10;94.50;;;;;;4935599;28;20035;-46
2023/07/09 01:17:14;;;;;;;11.63;7.80;;;24.10;94.40;;;;;;4952607;28;20439;-47
2023/07/09 01:19:43;;;;;;;11.80;8.20;;;24.00;94.50;;;;;;4946804;28;20062;-49
2023/07/09 01:22:15;;;;;;;11.55;8.65;;;24.00;94.60;;;;;;4952100;28;20094;-46
2023/07/09 01:24:54;;;;;;;10.85;8.18;;;24.00;94.50;;;;;;4952683;28;20047;-50
2023/07/09 01:27:27;;;;;;;12.90;8.20;;;23.90;94.50;;;;;;4952517;28;20035;-49
2023/07/09 01:29:55;;;;;;;10.27;7.55;;;23.80;94.50;;;;;;4952720;28;20093;-47
2023/07/09 01:32:22;;;;;;;11.00;7.55;;;23.80;94.50;;;;;;4952686;28;20042;-49
2023/07/09 01:34:50;;;;;;;10.93;7.97;;;23.70;94.70;;;;;;4935027;28;20073;-45
2023/07/09 01:37:17;;;;;;;11.20;8.02;;;23.70;94.70;;;;;;4952584;28;20107;-48
2023/07/09 01:39:44;;;;;;;11.13;7.95;;;23.60;94.70;;;;;;4952528;28;20330;-48
2023/07/09 01:42:10;;;;;;;12.10;8.27;;;23.60;94.90;;;;;;4951858;28;20039;-48
2023/07/09 01:44:38;;;;;;;14.30;8.68;;;23.60;94.90;;;;;;4952511;28;20458;-50
2023/07/09 01:47:05;;;;;;;11.98;8.43;;;23.50;94.90;;;;;;4951704;28;20070;-47
2023/07/09 01:49:32;;;;;;;14.15;8.52;;;23.50;94.90;;;;;;4952424;28;20122;-48
2023/07/09 01:52:00;;;;;;;10.93;8.18;;;23.40;95.00;;;;;;4952563;28;20436;-47
2023/07/09 01:54:31;;;;;;;11.55;8.30;;;23.40;95.20;;;;;;4952397;28;20039;-47
2023/07/09 01:57:22;;;;;;;12.38;8.15;;;23.30;95.20;;;;;;4937833;28;20047;-51
2023/07/09 01:59:49;;;;;;;10.65;8.50;;;23.30;95.20;;;;;;4938683;28;20039;-48
2023/07/09 02:02:20;;;;;;;13.00;8.50;;;23.20;95.20;;;;;;4937278;28;20492;-50
2023/07/09 02:04:54;;;;;;;11.57;8.70;;;23.20;95.40;;;;;;4953460;28;20046;-48
2023/07/09 02:07:22;;;;;;;13.23;9.55;;;23.20;95.50;;;;;;4938392;28;20035;-45
2023/07/09 02:09:48;;;;;;;12.65;9.15;;;23.10;95.60;;;;;;4955520;28;20060;-50
2023/07/09 02:12:15;;;;;;;10.85;8.77;;;23.10;95.60;;;;;;4955049;28;20091;-46
2023/07/09 02:14:42;;;;;;;12.93;8.77;;;23.00;95.60;;;;;;4955789;28;20035;-46
2023/07/09 02:17:10;;;;;;;10.82;7.88;;;23.00;95.60;;;;;;4955504;28;20090;-47
2023/07/09 02:19:36;;;;;;;17.13;9.77;;;23.00;95.80;;;;;;4955612;28;20463;-46
2023/07/09 02:22:01;;;;;;;11.77;8.95;;;23.00;95.70;;;;;;4938200;28;20077;-47
2023/07/09 02:24:27;;;;;;;12.25;8.15;;;23.00;95.80;;;;;;4955594;28;20452;-49
2023/07/09 02:26:57;;;;;;;12.38;9.02;;;22.90;95.80;;;;;;4954774;28;20050;-51
2023/07/09 02:29:24;;;;;;;14.68;9.13;;;22.90;95.90;;;;;;4955157;28;20069;-47
2023/07/09 02:31:51;;;;;;;13.15;9.13;;;22.80;95.90;;;;;;4954897;28;20399;-51
2023/07/09 02:34:18;;;;;;;13.18;8.93;;;22.80;96.20;;;;;;4955130;28;20035;-50
2023/07/09 02:36:44;;;;;;;12.43;8.25;;;22.80;96.10;;;;;;4936485;28;20489;-47
2023/07/09 02:39:12;;;;;;;11.95;8.32;;;22.70;96.30;;;;;;4937754;28;20171;-47
2023/07/09 02:41:41;;;;;;;12.82;8.73;;;22.70;96.40;;;;;;4937178;28;20054;-50
2023/07/09 02:44:07;;;;;;;11.43;8.52;;;22.70;96.40;;;;;;4954899;28;20046;-47
2023/07/09 02:46:33;;;;;;;13.05;8.63;;;22.70;96.50;;;;;;4953854;28;20042;-49
2023/07/09 02:49:00;;;;;;;12.70;9.35;;;22.70;96.60;;;;;;4953392;28;20043;-49
2023/07/09 02:51:29;;;;;;;12.80;9.27;;;22.60;96.60;;;;;;4954755;28;20038;-49
2023/07/09 02:53:56;;;;;;;11.82;9.07;;;22.50;96.60;;;;;;4955094;28;20043;-48
2023/07/09 02:56:23;;;;;;;12.27;8.88;;;22.50;96.80;;;;;;4954775;28;20035;-47
2023/07/09 02:58:49;;;;;;;11.40;9.25;;;22.50;97.00;;;;;;4954812;28;20054;-49
2023/07/09 03:01:15;;;;;;;12.52;9.00;;;22.40;97.10;;;;;;4954939;28;20038;-47
2023/07/09 03:03:41;;;;;;;12.25;9.30;;;22.40;97.10;;;;;;4954747;28;20499;-46
2023/07/09 03:06:07;;;;;;;13.73;9.45;;;22.40;97.30;;;;;;4937343;28;20041;-49
2023/07/09 03:08:32;;;;;;;13.50;9.98;;;22.30;97.10;;;;;;4953871;28;20049;-48
2023/07/09 03:10:58;;;;;;;12.35;9.63;;;22.30;97.20;;;;;;4936697;28;20066;-48
2023/07/09 03:13:24;;;;;;;13.00;9.40;;;22.30;97.20;;;;;;4954584;28;20421;-49
2023/07/09 03:15:57;;;;;;;14.18;9.60;;;22.30;97.10;;;;;;4954361;28;20069;-49
2023/07/09 03:18:23;;;;;;;14.20;8.50;;;22.30;97.30;;;;;;4954057;28;20046;-45
2023/07/09 03:20:49;;;;;;;11.73;9.65;;;22.30;97.40;;;;;;4954034;28;20027;-46
2023/07/09 03:23:15;;;;;;;13.57;9.20;;;22.30;97.50;;;;;;4936711;28;20082;-46
2023/07/09 03:25:42;;;;;;;13.30;9.50;;;22.30;97.60;;;;;;4954313;28;20383;-48
2023/07/09 03:28:08;;;;;;;11.65;8.80;;;22.30;97.60;;;;;;4954397;28;20047;-50
2023/07/09 03:30:33;;;;;;;13.60;9.93;;;22.20;97.70;;;;;;4954141;28;20066;-50
2023/07/09 03:33:00;;;;;;;14.00;9.35;;;22.20;97.60;;;;;;4953635;28;20103;-47
2023/07/09 03:35:26;;;;;;;12.07;9.13;;;22.20;97.80;;;;;;4936735;28;20047;-48
2023/07/09 03:37:52;;;;;;;11.32;9.10;;;22.20;97.90;;;;;;4954108;28;20067;-52
2023/07/09 03:40:22;;;;;;;11.95;9.50;;;22.20;97.90;;;;;;4953885;28;20073;-48
2023/07/09 03:42:48;;;;;;;14.65;9.18;;;22.10;97.80;;;;;;4936809;28;20447;-50
2023/07/09 03:45:14;;;;;;;13.73;9.60;;;22.10;97.90;;;;;;4953721;28;20035;-47
2023/07/09 03:47:39;;;;;;;13.25;9.38;;;22.20;97.90;;;;;;4952029;28;20118;-48
2023/07/09 03:50:08;;;;;;;12.73;9.35;;;22.10;97.90;;;;;;4953651;28;20043;-49
2023/07/09 03:52:34;;;;;;;12.10;9.73;;;22.20;98.10;;;;;;4953724;28;20103;-49
2023/07/09 03:55:00;;;;;;;15.30;9.75;;;22.10;98.10;;;;;;4953571;28;20432;-48
2023/07/09 03:57:27;;;;;;;13.70;9.70;;;22.20;98.10;;;;;;4936256;28;20078;-45
2023/07/09 03:59:53;;;;;;;11.73;9.25;;;22.10;98.00;;;;;;4936044;28;20114;-48
2023/07/09 04:02:18;;;;;;;12.13;9.27;;;22.10;98.20;;;;;;4953551;28;20600;-47
2023/07/09 04:04:44;;;;;;;10.63;8.65;;;22.20;98.10;;;;;;4953784;28;20043;-48
2023/07/09 04:07:10;;;;;;;12.85;9.57;;;22.10;98.20;;;;;;4953228;28;20038;-46
2023/07/09 04:09:35;;;;;;;14.10;9.52;;;22.10;98.20;;;;;;4953265;28;20055;-48
2023/07/09 04:12:02;;;;;;;11.55;8.82;;;22.10;98.20;;;;;;4952957;28;20058;-46
2023/07/09 04:14:29;;;;;;;11.85;8.80;;;22.10;98.10;;;;;;4953808;28;20147;-46
2023/07/09 04:16:54;;;;;;;11.57;9.05;;;22.10;98.30;;;;;;4953421;28;20050;-47
2023/07/09 04:19:20;;;;;;;13.25;9.55;;;22.10;98.50;;;;;;4951093;28;20447;-52
2023/07/09 04:21:46;;;;;;;12.32;9.45;;;22.10;98.30;;;;;;4953374;28;20087;-49
2023/07/09 04:24:11;;;;;;;15.13;9.48;;;22.10;98.40;;;;;;4953164;28;20491;-51
2023/07/09 04:26:38;;;;;;;11.80;9.52;;;22.10;98.40;;;;;;4953115;28;20085;-48
2023/07/09 04:29:05;;;;;;;13.52;9.80;;;22.10;98.70;;;;;;4953451;28;20051;-49
2023/07/09 04:31:31;;;;;;;12.75;9.30;;;22.10;98.80;;;;;;4953187;28;20376;-48
2023/07/09 04:33:57;;;;;;;12.85;9.43;;;22.10;98.70;;;;;;4935814;28;20054;-48
2023/07/09 04:36:23;;;;;;;14.63;9.23;;;22.20;98.80;;;;;;4935404;28;20046;-45
2023/07/09 04:38:49;;;;;;;15.13;9.00;;;22.20;98.80;;;;;;4953117;28;20143;-46
2023/07/09 04:41:14;;;;;;;11.02;9.27;;;22.20;98.80;;;;;;4952271;28;20039;-50
2023/07/09 04:43:40;;;;;;;13.25;9.35;;;22.20;98.90;;;;;;4953058;28;20042;-46
2023/07/09 04:46:06;;;;;;;13.80;10.02;;;22.20;99.20;;;;;;4952915;28;20039;-49
2023/07/09 04:48:31;;;;;;;13.02;9.57;;;22.20;99.10;;;;;;4953186;28;20079;-47
2023/07/09 04:50:59;;;;;;;12.15;9.38;;;22.30;99.20;;;;;;4952889;28;20050;-46
2023/07/09 04:53:26;;;;;;;13.70;9.55;;;22.30;99.30;;;;;;4952770;28;20102;-46
2023/07/09 04:55:52;;;;;;;12.27;9.27;;;22.30;99.10;;;;;;4952836;28;20046;-47
2023/07/09 04:58:18;;;;;;;11.73;9.25;;;22.30;99.30;;;;;;4952687;28;20593;-45
2023/07/09 05:00:45;;;;;;;15.13;9.88;;;22.30;99.30;;;;;;4952885;28;20489;-50
2023/07/09 05:03:11;;;;;;;14.80;9.38;;;22.30;99.50;;;;;;4950556;28;20434;-48
2023/07/09 05:05:44;;;;;;;12.77;9.73;;;22.30;99.60;;;;;;4952306;28;20070;-46
2023/07/09 05:08:10;;;;;;;14.35;9.23;;;22.30;99.80;;;;;;4952809;29;20050;-50
2023/07/09 05:10:42;;;;;;;13.00;9.25;;;22.30;99.90;;;;;;4952428;29;20515;-48
2023/07/09 05:13:08;;;;;;;13.57;9.65;;;22.30;99.90;;;;;;4952445;29;20050;-50
2023/07/09 05:15:34;;;;;;;15.75;9.57;;;22.30;99.90;;;;;;4952595;29;20047;-48
2023/07/09 05:17:59;;;;;;;13.45;9.30;;;22.30;99.90;;;;;;4952595;29;20067;-49
2023/07/09 05:20:25;;;;;;;11.63;8.85;;;22.30;99.90;;;;;;4952892;29;20043;-46
2023/07/09 05:22:51;;;;;;;14.65;9.30;;;22.30;99.90;;;;;;4952625;29;20036;-48
2023/07/09 05:25:17;;;;;;;15.50;8.88;;;22.40;99.90;;;;;;4952798;29;20047;-46
2023/07/09 05:27:43;;;;;;;11.98;9.65;;;22.40;99.90;;;;;;4952581;29;20054;-47
2023/07/09 05:30:09;;;;;;;12.48;9.25;;;22.40;99.90;;;;;;4952543;28;20039;-49
2023/07/09 05:32:38;;;;;;;14.45;10.20;;;22.40;99.90;;;;;;4939065;29;20480;-47
2023/07/09 05:35:04;;;;;;;13.70;9.70;;;22.50;99.90;;;;;;4956116;29;20580;-49
2023/07/09 05:37:30;;;;;;;13.55;9.98;;;22.50;99.90;;;;;;4956392;29;20122;-47
2023/07/09 05:39:56;;;;;;;13.88;10.23;;;22.50;99.90;;;;;;4955787;28;20039;-48
2023/07/09 05:42:22;;;;;;;12.80;10.40;;;22.50;99.90;;;;;;4955603;28;20044;-46
2023/07/09 05:44:47;;;;;;;17.20;11.32;;;22.50;99.90;;;;;;4955578;28;20110;-47
2023/07/09 05:47:13;;;;;;;15.38;10.45;;;22.60;99.90;;;;;;4971116;28;20035;-49
2023/07/09 05:49:39;;;;;;;14.95;10.10;;;22.60;99.90;;;;;;4954501;28;20046;-50
2023/07/09 05:52:05;;;;;;;14.63;10.20;;;22.70;99.90;;;;;;4955708;28;20041;-47
2023/07/09 05:54:31;;;;;;;16.05;11.05;;;22.70;99.90;;;;;;4955931;28;20048;-48
2023/07/09 05:56:57;;;;;;;12.98;10.82;;;22.70;99.90;;;;;;4956136;28;20115;-49
2023/07/09 05:59:23;;;;;;;13.95;10.98;;;22.80;99.90;;;;;;4955636;28;20075;-50
2023/07/09 06:01:48;;;;;;;14.70;11.30;;;22.80;99.90;;;;;;4955843;28;20035;-49
2023/07/09 06:04:14;;;;;;;16.48;11.90;;;22.90;99.90;;;;;;4955640;28;20054;-49
2023/07/09 06:06:41;;;;;;;17.83;11.50;;;22.90;99.90;;;;;;4954445;28;20031;-48
2023/07/09 06:09:08;;;;;;;19.63;11.57;;;22.90;99.90;;;;;;4955694;28;20031;-46
2023/07/09 06:11:34;;;;;;;14.45;11.20;;;23.00;99.90;;;;;;4955227;28;20051;-47
2023/07/09 06:14:00;;;;;;;15.30;11.02;;;23.00;99.90;;;;;;4955479;28;20043;-49
2023/07/09 06:16:26;;;;;;;18.75;11.38;;;23.00;99.90;;;;;;4955366;28;20067;-45
2023/07/09 06:18:52;;;;;;;15.93;11.82;;;23.10;99.90;;;;;;4955559;28;20047;-44
2023/07/09 06:21:18;;;;;;;19.17;12.13;;;23.10;99.90;;;;;;4955576;28;20501;-45
2023/07/09 06:23:45;;;;;;;15.25;11.40;;;23.10;99.90;;;;;;4937916;28;20043;-47
2023/07/09 06:26:11;;;;;;;17.55;11.85;;;23.20;99.90;;;;;;4955425;28;20041;-48
2023/07/09 06:28:37;;;;;;;14.98;11.63;;;23.20;99.90;;;;;;4937901;28;20534;-46
2023/07/09 06:31:03;;;;;;;16.08;12.75;;;23.30;99.90;;;;;;4955406;28;20094;-49
2023/07/09 06:33:29;;;;;;;15.20;11.75;;;23.40;99.90;;;;;;4936977;28;20055;-51
2023/07/09 06:35:58;;;;;;;15.43;11.93;;;23.50;99.90;;;;;;4953691;28;20043;-47
2023/07/09 06:38:24;;;;;;;18.08;12.65;;;23.50;99.90;;;;;;4954844;28;20039;-45
2023/07/09 06:40:50;;;;;;;16.17;11.93;;;23.60;99.90;;;;;;4952603;28;20094;-50
2023/07/09 06:43:16;;;;;;;16.92;12.50;;;23.70;99.90;;;;;;4948317;28;20031;-48
2023/07/09 06:45:56;;;;;;;15.57;11.48;;;23.80;99.90;;;;;;4952652;28;20640;-46
2023/07/09 06:48:23;;;;;;;17.95;12.38;;;23.90;99.90;;;;;;4945497;28;20050;-50
2023/07/09 06:50:49;;;;;;;17.88;12.05;;;23.90;99.90;;;;;;4933679;28;20047;-48
2023/07/09 06:53:15;;;;;;;17.33;12.90;;;24.00;99.90;;;;;;4932159;28;20043;-45
2023/07/09 06:55:41;;;;;;;16.13;12.70;;;24.10;99.90;;;;;;4950952;28;20035;-48
2023/07/09 06:58:08;;;;;;;15.68;11.77;;;24.20;99.90;;;;;;4951868;28;20043;-45
2023/07/09 07:00:35;;;;;;;16.45;12.35;;;24.20;99.90;;;;;;4946655;28;20031;-51
2023/07/09 07:03:02;;;;;;;17.40;12.88;;;24.30;99.90;;;;;;4954257;28;20039;-48
2023/07/09 07:05:27;;;;;;;17.88;13.05;;;24.40;99.90;;;;;;4952125;28;20046;-50
2023/07/09 07:07:53;;;;;;;14.52;11.77;;;24.50;99.90;;;;;;4953234;28;20479;-46
2023/07/09 07:10:19;;;;;;;18.13;12.23;;;24.50;99.90;;;;;;4952338;28;20577;-49
2023/07/09 07:12:47;;;;;;;15.60;12.43;;;24.60;99.90;;;;;;4952913;28;20047;-49
2023/07/09 07:15:17;;;;;;;19.75;12.57;;;24.70;99.90;;;;;;4952908;28;20148;-51
2023/07/09 07:17:43;;;;;;;17.08;12.32;;;24.70;99.90;;;;;;4949080;28;20070;-52
2023/07/09 07:20:10;;;;;;;16.08;11.85;;;24.80;99.90;;;;;;4952969;28;20038;-48
2023/07/09 07:22:38;;;;;;;18.40;12.38;;;24.90;99.90;;;;;;4953039;28;20073;-45
2023/07/09 07:25:08;;;;;;;18.98;12.52;;;25.00;99.90;;;;;;4950550;28;20039;-49
2023/07/09 07:27:34;;;;;;;17.25;12.68;;;25.00;99.90;;;;;;4949524;28;20043;-50
2023/07/09 07:30:01;;;;;;;19.20;12.52;;;25.10;99.90;;;;;;4945885;28;20039;-51
2023/07/09 07:32:26;;;;;;;17.10;12.73;;;25.20;99.90;;;;;;4933862;28;20383;-45
2023/07/09 07:34:54;;;;;;;15.13;11.40;;;25.20;99.90;;;;;;4953920;28;20035;-49
2023/07/09 07:37:20;;;;;;;16.15;11.40;;;25.30;99.90;;;;;;4952123;28;20042;-49
2023/07/09 07:39:47;;;;;;;15.27;10.98;;;25.40;99.90;;;;;;4954528;28;20364;-47
2023/07/09 07:42:12;;;;;;;14.73;10.23;;;25.40;99.90;;;;;;4952100;28;20074;-47
2023/07/09 07:44:38;;;;;;;17.58;10.35;;;25.50;99.90;;;;;;4951556;28;20071;-47
2023/07/09 07:47:05;;;;;;;13.73;9.98;;;25.60;99.90;;;;;;4953445;28;20031;-48
2023/07/09 07:49:31;;;;;;;14.85;8.98;;;25.70;99.90;;;;;;4953326;28;20051;-49
2023/07/09 07:51:56;;;;;;;15.20;9.65;;;25.80;99.90;;;;;;4934749;28;20496;-49
2023/07/09 07:54:22;;;;;;;16.85;8.80;;;25.90;99.90;;;;;;4954821;28;20070;-47
2023/07/09 07:56:48;;;;;;;13.02;9.95;;;26.00;99.90;;;;;;4951892;28;20057;-44
2023/07/09 07:59:14;;;;;;;15.15;9.50;;;26.00;99.90;;;;;;4953392;28;20043;-46
2023/07/09 08:01:40;;;;;;;13.85;8.65;;;26.10;99.90;;;;;;4953465;28;20054;-48
2023/07/09 08:04:06;;;;;;;11.95;8.63;;;26.10;99.90;;;;;;4921141;29;20047;-48
2023/07/09 08:06:31;;;;;;;12.45;7.93;;;26.20;99.90;;;;;;4953766;29;20035;-46
2023/07/09 08:08:58;;;;;;;13.00;8.68;;;26.30;99.90;;;;;;4953874;28;20039;-45
2023/07/09 08:11:24;;;;;;;13.82;8.20;;;26.30;99.90;;;;;;4953148;29;20054;-49
2023/07/09 08:13:51;;;;;;;13.68;8.50;;;26.40;99.90;;;;;;4953833;28;20102;-47
2023/07/09 08:16:17;;;;;;;16.15;9.13;;;26.50;99.90;;;;;;4953714;28;20791;-46
2023/07/09 08:18:42;;;;;;;15.60;9.68;;;26.60;99.90;;;;;;4962926;28;20074;-49
2023/07/09 08:21:09;;;;;;;17.50;9.75;;;26.70;99.90;;;;;;4972969;28;20453;-46
2023/07/09 08:23:35;;;;;;;15.50;9.73;;;26.80;99.90;;;;;;4959538;28;20402;-48
2023/07/09 08:26:03;;;;;;;15.48;9.82;;;26.90;99.90;;;;;;4953500;28;20074;-47
2023/07/09 08:28:30;;;;;;;15.43;10.73;;;27.00;99.90;;;;;;4935799;29;20402;-48
2023/07/09 08:30:56;;;;;;;13.85;10.25;;;27.00;99.90;;;;;;4951451;29;20138;-48
2023/07/09 08:33:23;;;;;;;15.10;10.02;;;27.00;99.90;;;;;;4933706;29;20039;-47
2023/07/09 08:35:53;;;;;;;15.85;9.98;;;27.10;99.90;;;;;;4953271;28;20121;-45
2023/07/09 08:38:19;;;;;;;13.98;9.63;;;27.10;99.90;;;;;;4952244;28;20111;-51
2023/07/09 08:41:06;;;;;;;17.67;10.55;;;27.20;99.90;;;;;;4952708;28;20035;-48
2023/07/09 08:43:44;;;;;;;15.52;10.13;;;27.30;99.90;;;;;;4952200;28;20062;-45
2023/07/09 08:46:10;;;;;;;14.75;9.95;;;27.30;99.90;;;;;;4932121;29;20055;-48
2023/07/09 08:48:40;;;;;;;13.38;10.20;;;27.40;99.90;;;;;;4952152;28;20041;-51
2023/07/09 08:51:19;;;;;;;14.60;10.32;;;27.40;99.90;;;;;;4952407;28;20035;-47
2023/07/09 08:53:57;;;;;;;12.95;9.13;;;27.40;99.90;;;;;;4951835;28;20063;-49
2023/07/09 08:56:23;;;;;;;15.00;10.70;;;27.50;99.90;;;;;;4952323;28;20039;-49
2023/07/09 08:58:52;;;;;;;16.75;10.68;;;27.70;99.90;;;;;;4952976;28;20090;-49
2023/07/09 09:01:33;;;;;;;15.60;9.98;;;27.80;99.90;;;;;;4952637;28;20039;-48
2023/07/09 09:04:05;;;;;;;17.67;9.32;;;27.80;99.90;;;;;;4952730;28;20063;-46
2023/07/09 09:06:31;;;;;;;16.25;9.90;;;27.80;99.90;;;;;;4956762;28;20078;-49
2023/07/09 09:09:14;;;;;;;15.52;7.95;;;27.90;99.90;;;;;;4958244;28;20043;-52
2023/07/09 09:11:44;;;;;;;16.23;9.68;;;28.00;99.90;;;;;;4938774;29;20138;-48
2023/07/09 09:14:24;;;;;;;13.75;9.25;;;28.20;99.90;;;;;;4958122;28;20387;-49
2023/07/09 09:16:52;;;;;;;14.65;10.13;;;28.30;99.90;;;;;;4959707;28;20109;-47
2023/07/09 09:19:38;;;;;;;17.80;10.00;;;28.40;99.90;;;;;;4958878;28;20043;-46
2023/07/09 09:22:16;;;;;;;13.45;9.82;;;28.50;99.90;;;;;;4959410;28;20045;-47
2023/07/09 09:24:51;;;;;;;14.90;9.35;;;28.60;99.90;;;;;;4958860;28;20031;-48
2023/07/09 09:27:16;;;;;;;15.43;9.73;;;28.70;99.90;;;;;;4938664;29;20504;-49
2023/07/09 09:29:42;;;;;;;14.60;9.68;;;28.80;99.40;;;;;;4954085;28;20039;-45
2023/07/09 09:32:26;;;;;;;12.70;9.80;;;28.90;99.70;;;;;;4957181;28;20049;-48
2023/07/09 09:34:53;;;;;;;12.32;9.13;;;29.00;99.90;;;;;;4954218;28;20078;-45
2023/07/09 09:37:24;;;;;;;14.43;9.30;;;29.00;99.60;;;;;;4956520;28;20421;-48
2023/07/09 09:39:50;;;;;;;13.30;8.93;;;29.10;99.30;;;;;;4953445;28;20043;-47
2023/07/09 09:42:16;;;;;;;15.77;8.68;;;29.20;99.70;;;;;;4954367;28;20422;-47
2023/07/09 09:44:45;;;;;;;14.82;8.27;;;29.30;98.70;;;;;;4954228;28;20382;-48
2023/07/09 09:47:11;;;;;;;11.00;7.13;;;29.30;98.20;;;;;;4956679;28;20091;-47
2023/07/09 09:49:44;;;;;;;13.75;8.90;;;29.40;98.40;;;;;;4956661;28;20043;-48
2023/07/09 09:52:14;;;;;;;15.13;7.85;;;29.40;98.10;;;;;;4938871;28;20681;-49
2023/07/09 09:54:47;;;;;;;11.90;8.15;;;29.50;98.40;;;;;;4956828;28;20054;-50
2023/07/09 09:57:19;;;;;;;13.00;8.65;;;29.60;98.40;;;;;;4956766;28;20497;-49
2023/07/09 09:59:46;;;;;;;10.80;7.95;;;29.70;98.70;;;;;;4956477;28;20039;-49
2023/07/09 10:02:23;;;;;;;16.77;8.82;;;29.80;98.80;;;;;;4956990;28;20039;-48
2023/07/09 10:04:49;;;;;;;13.35;7.97;;;29.90;98.90;;;;;;4955960;28;20053;-49
2023/07/09 10:07:29;;;;;;;13.07;9.20;;;30.00;98.80;;;;;;4957134;28;20149;-45
2023/07/09 10:09:56;;;;;;;13.27;8.38;;;30.00;98.80;;;;;;4955500;28;20051;-48
2023/07/09 10:12:55;;;;;;;13.63;9.65;;;30.10;98.80;;;;;;4955619;28;20051;-49
2023/07/09 10:15:20;;;;;;;13.10;8.25;;;30.20;98.20;;;;;;4956520;28;20130;-45
2023/07/09 10:17:56;;;;;;;18.73;9.13;;;30.20;98.20;;;;;;4956514;28;20159;-49
2023/07/09 10:20:46;;;;;;;11.23;7.63;;;30.30;97.80;;;;;;4948084;28;20091;-50
2023/07/09 10:23:15;;;;;;;12.88;8.35;;;30.40;97.90;;;;;;4947367;28;20043;-47
2023/07/09 10:25:58;;;;;;;12.45;8.43;;;30.50;97.90;;;;;;4945674;28;20043;-46
2023/07/09 10:28:51;;;;;;;12.30;8.88;;;30.50;98.20;;;;;;4946220;28;20395;-48
2023/07/09 10:31:22;;;;;;;13.60;8.52;;;30.60;98.10;;;;;;4946798;28;20071;-46
2023/07/09 10:34:12;;;;;;;15.75;10.13;;;30.60;98.20;;;;;;4927966;28;20039;-44
2023/07/09 10:37:14;;;;;;;14.40;8.77;;;30.70;97.90;;;;;;4946336;28;20493;-48
2023/07/09 10:39:47;;;;;;;13.57;8.90;;;30.70;97.90;;;;;;4906232;28;20051;-47
2023/07/09 10:42:39;;;;;;;15.52;9.93;;;30.80;98.00;;;;;;4946793;28;20044;-47
2023/07/09 10:45:11;;;;;;;13.00;9.02;;;30.90;97.10;;;;;;4936865;28;20582;-46
2023/07/09 10:47:59;;;;;;;14.18;8.75;;;30.90;97.70;;;;;;4945908;28;20094;-49
2023/07/09 10:50:33;;;;;;;13.15;8.60;;;31.00;97.90;;;;;;4945587;28;20043;-46
2023/07/09 10:53:05;;;;;;;13.95;8.88;;;31.10;97.70;;;;;;4945663;28;20035;-49
2023/07/09 10:55:39;;;;;;;12.07;8.68;;;31.20;97.90;;;;;;4945585;28;20077;-47
2023/07/09 10:58:12;;;;;;;14.20;8.73;;;31.20;97.40;;;;;;4945628;28;20043;-48
2023/07/09 11:00:40;;;;;;;13.98;9.07;;;31.30;97.10;;;;;;4944048;28;20126;-49
2023/07/09 11:03:40;;;;;;;8.90;5.93;;;31.40;97.50;;;;;;4953614;28;20159;-49
2023/07/09 11:06:33;;;;;;;10.52;6.38;;;31.50;97.10;;;;;;4947641;28;20055;-49
2023/07/09 11:09:01;;;;;;;8.98;5.75;;;31.70;96.80;;;;;;4952192;28;20074;-49
2023/07/09 11:11:45;;;;;;;10.38;6.03;;;31.80;96.90;;;;;;4953254;28;20051;-47
2023/07/09 11:14:27;;;;;;;10.43;6.15;;;31.80;96.40;;;;;;4954374;28;20475;-49
2023/07/09 11:16:56;;;;;;;10.88;6.47;;;31.90;96.50;;;;;;4954524;28;20126;-48
2023/07/09 11:19:21;;;;;;;11.40;6.03;;;32.00;96.30;;;;;;4953317;28;20085;-47
2023/07/09 11:22:21;;;;;;;13.65;6.47;;;32.10;96.90;;;;;;4937330;28;20070;-49
2023/07/09 11:24:52;;;;;;;8.65;5.93;;;32.20;96.50;;;;;;4895207;28;20134;-49
2023/07/09 11:27:24;;;;;;;11.02;6.28;;;32.30;97.00;;;;;;4953106;28;20414;-50
2023/07/09 11:30:02;;;;;;;13.68;6.28;;;32.40;96.50;;;;;;4952556;28;20142;-47
2023/07/09 11:32:29;;;;;;;9.80;6.25;;;32.50;96.40;;;;;;4953077;28;20047;-46
2023/07/09 11:35:07;;;;;;;12.25;6.25;;;32.60;96.40;;;;;;4953133;28;20083;-48
2023/07/09 11:37:43;;;;;;;10.90;6.25;;;32.60;96.00;;;;;;4953313;28;20474;-50
2023/07/09 11:40:13;;;;;;;9.38;6.38;;;32.70;96.10;;;;;;4953569;28;20409;-48
2023/07/09 11:42:56;;;;;;;8.30;5.82;;;32.70;95.90;;;;;;4953779;28;20151;-48
2023/07/09 11:45:28;;;;;;;10.35;5.43;;;32.90;96.20;;;;;;4954049;28;20431;-49
2023/07/09 11:48:06;;;;;;;7.75;5.20;;;33.00;96.10;;;;;;4963850;28;20034;-51
2023/07/09 11:50:37;;;;;;;7.78;5.40;;;33.10;95.80;;;;;;4972870;28;20066;-46
2023/07/09 11:53:21;;;;;;;9.70;5.32;;;33.30;95.40;;;;;;4972989;28;20078;-47
2023/07/09 11:55:47;;;;;;;9.60;5.18;;;33.40;95.20;;;;;;4973124;28;20122;-49
2023/07/09 11:58:17;;;;;;;7.15;5.15;;;33.50;94.90;;;;;;4952324;28;20134;-45
2023/07/09 12:00:51;;;;;;;11.27;5.20;;;33.60;94.60;;;;;;4953766;28;20043;-48
2023/07/09 12:03:20;;;;;;;8.43;5.53;;;33.70;94.40;;;;;;4953626;28;20047;-46
2023/07/09 12:05:51;;;;;;;10.23;5.68;;;33.70;94.30;;;;;;4953398;28;20039;-51
2023/07/09 12:08:18;;;;;;;10.60;5.70;;;33.80;94.60;;;;;;4953458;28;20070;-48
2023/07/09 12:10:44;;;;;;;10.07;4.85;;;33.90;94.30;;;;;;4953126;28;20086;-49
2023/07/09 12:13:12;;;;;;;9.77;5.75;;;34.10;94.50;;;;;;4953101;28;20054;-50
2023/07/09 12:15:39;;;;;;;10.02;5.05;;;34.20;94.20;;;;;;4936078;28;20054;-49
2023/07/09 12:18:15;;;;;;;8.90;5.47;;;34.30;93.80;;;;;;4953291;28;20395;-46
2023/07/09 12:20:47;;;;;;;8.40;5.25;;;34.40;94.00;;;;;;4953595;28;20042;-47
2023/07/09 12:23:27;;;;;;;7.70;5.32;;;34.50;94.20;;;;;;4952897;28;20038;-48
2023/07/09 12:25:54;;;;;;;8.23;4.85;;;34.70;93.60;;;;;;4953307;28;20110;-49
2023/07/09 12:28:21;;;;;;;7.85;4.80;;;34.70;92.90;;;;;;4953134;28;20047;-51
2023/07/09 12:30:49;;;;;;;8.43;5.20;;;34.90;93.50;;;;;;4953135;28;20114;-47
2023/07/09 12:33:19;;;;;;;9.55;5.25;;;35.00;93.20;;;;;;4953194;28;20078;-50
2023/07/09 12:35:47;;;;;;;8.10;4.60;;;35.00;92.60;;;;;;4936108;28;20042;-49
2023/07/09 12:38:23;;;;;;;7.10;4.68;;;35.00;92.90;;;;;;4952602;28;20050;-49
2023/07/09 12:40:50;;;;;;;9.55;5.13;;;35.00;92.70;;;;;;4952422;28;20039;-49
2023/07/09 12:43:25;;;;;;;8.77;4.97;;;34.90;92.50;;;;;;4935391;28;20046;-49
2023/07/09 12:45:56;;;;;;;7.97;4.90;;;34.80;92.30;;;;;;4935700;28;20039;-45
2023/07/09 12:48:27;;;;;;;8.10;4.90;;;34.70;92.30;;;;;;4952943;28;20462;-48